Time;durP1;ratioP1;P1;durP2;ratioP2;P2;SDS_P1;SDS_P2;PMS_P1;PMS_P2;Temp;Humidity;BMP_temperature;BMP_pressure;BME280_temperature;BME280_humidity;BME280_pressure;Samples;Min_cycle;Max_cycle;Signal;HPM_P1;HPM_P2
2023/05/28 00:00:10;;;;;;;29.63;11.33;;;;;;;;;;5028265;28;20502;-62
2023/05/28 00:02:37;;;;;;;28.10;12.43;;;;;;;;;;5029806;28;20041;-62
2023/05/28 00:05:04;;;;;;;38.63;12.23;;;;;;;;;;5029676;28;20041;-62
2023/05/28 00:07:33;;;;;;;43.00;12.27;;;;;;;;;;5029737;28;20513;-62
2023/05/28 00:09:59;;;;;;;34.00;13.43;;;;;;;;;;5029282;28;20141;-62
2023/05/28 00:12:25;;;;;;;31.23;12.00;;;;;;;;;;5029536;28;20463;-62
2023/05/28 00:14:51;;;;;;;35.13;12.87;;;;;;;;;;5028737;28;20053;-62
2023/05/28 00:17:17;;;;;;;33.17;13.37;;;;;;;;;;5029447;28;20471;-62
2023/05/28 00:19:44;;;;;;;34.20;12.90;;;;;;;;;;5029440;28;20504;-62
2023/05/28 00:22:11;;;;;;;39.20;14.20;;;;;;;;;;5044134;28;20103;-62
2023/05/28 00:24:37;;;;;;;36.00;12.97;;;;;;;;;;5048551;28;20070;-62
2023/05/28 00:27:03;;;;;;;42.70;14.23;;;;;;;;;;5042715;28;20060;-62
2023/05/28 00:29:29;;;;;;;41.63;13.23;;;;;;;;;;5032936;28;20499;-62
2023/05/28 00:31:56;;;;;;;35.67;12.67;;;;;;;;;;5029186;28;20061;-62
2023/05/28 00:34:26;;;;;;;36.27;13.00;;;;;;;;;;5028446;28;20057;-62
2023/05/28 00:36:53;;;;;;;52.30;13.37;;;;;;;;;;5028846;28;20041;-62
2023/05/28 00:39:19;;;;;;;51.83;13.30;;;;;;;;;;5029015;28;20061;-62
2023/05/28 00:41:45;;;;;;;35.80;13.43;;;;;;;;;;5028810;28;20042;-62
2023/05/28 00:44:12;;;;;;;34.57;13.33;;;;;;;;;;5047216;28;20048;-62
2023/05/28 00:46:41;;;;;;;30.80;11.90;;;;;;;;;;5048602;28;20495;-62
2023/05/28 00:49:07;;;;;;;37.47;11.73;;;;;;;;;;5042675;28;20415;-62
2023/05/28 00:51:33;;;;;;;43.50;13.03;;;;;;;;;;5028532;28;20056;-62
2023/05/28 00:54:00;;;;;;;41.50;12.33;;;;;;;;;;5028481;28;20524;-62
2023/05/28 00:56:26;;;;;;;36.30;13.10;;;;;;;;;;5028643;28;20080;-62
2023/05/28 00:58:53;;;;;;;33.47;11.30;;;;;;;;;;5027995;28;20077;-62
2023/05/28 01:01:19;;;;;;;41.40;13.13;;;;;;;;;;5028791;28;20107;-62
2023/05/28 01:03:46;;;;;;;29.57;12.33;;;;;;;;;;5028369;28;20111;-62
2023/05/28 01:06:14;;;;;;;42.10;12.73;;;;;;;;;;5029672;28;20056;-62
2023/05/28 01:08:41;;;;;;;44.83;12.80;;;;;;;;;;5047890;28;20045;-62
2023/05/28 01:11:09;;;;;;;41.90;12.47;;;;;;;;;;5048056;28;20045;-62
2023/05/28 01:13:36;;;;;;;34.53;10.83;;;;;;;;;;5048481;28;20048;-62
2023/05/28 01:16:02;;;;;;;42.20;12.90;;;;;;;;;;5048720;28;20045;-62
2023/05/28 01:18:28;;;;;;;34.47;11.80;;;;;;;;;;5048302;28;20541;-62
2023/05/28 01:20:54;;;;;;;38.27;13.17;;;;;;;;;;5039923;28;20053;-62
2023/05/28 01:23:22;;;;;;;29.17;11.83;;;;;;;;;;5027032;28;20491;-62
2023/05/28 01:25:51;;;;;;;41.87;11.50;;;;;;;;;;5028471;28;20125;-62
2023/05/28 01:28:17;;;;;;;36.97;12.73;;;;;;;;;;5028288;28;20518;-62
2023/05/28 01:30:44;;;;;;;31.10;12.17;;;;;;;;;;5026788;28;20046;-62
2023/05/28 01:33:11;;;;;;;32.03;11.93;;;;;;;;;;5027857;28;20511;-62
2023/05/28 01:35:39;;;;;;;38.93;11.73;;;;;;;;;;5040732;28;20144;-62
2023/05/28 01:38:06;;;;;;;38.53;12.43;;;;;;;;;;5030956;28;20049;-62
2023/05/28 01:40:33;;;;;;;34.93;12.07;;;;;;;;;;5028096;28;20046;-62
2023/05/28 01:43:00;;;;;;;40.70;13.87;;;;;;;;;;5028324;28;20050;-62
2023/05/28 01:45:26;;;;;;;31.57;12.47;;;;;;;;;;5027742;28;20104;-62
2023/05/28 01:47:52;;;;;;;33.50;14.17;;;;;;;;;;5028030;28;20050;-62
2023/05/28 01:50:19;;;;;;;33.63;13.70;;;;;;;;;;5028413;28;20046;-62
2023/05/28 01:52:45;;;;;;;32.37;12.80;;;;;;;;;;5027583;28;20048;-62
2023/05/28 01:55:13;;;;;;;45.50;14.27;;;;;;;;;;5026886;28;20063;-62
2023/05/28 01:57:39;;;;;;;33.73;12.90;;;;;;;;;;5028008;28;20046;-62
2023/05/28 02:00:06;;;;;;;38.33;12.30;;;;;;;;;;5028307;28;20095;-62
2023/05/28 02:02:32;;;;;;;30.23;11.97;;;;;;;;;;5026621;28;20573;-62
2023/05/28 02:04:58;;;;;;;33.07;13.47;;;;;;;;;;5028009;28;20404;-62
2023/05/28 02:07:24;;;;;;;43.23;13.40;;;;;;;;;;5032249;28;20060;-62
2023/05/28 02:09:50;;;;;;;41.43;13.63;;;;;;;;;;5047555;28;20419;-62
2023/05/28 02:12:16;;;;;;;29.07;11.70;;;;;;;;;;5047735;28;20110;-62
2023/05/28 02:14:45;;;;;;;41.60;13.80;;;;;;;;;;5047140;28;20490;-62
2023/05/28 02:17:12;;;;;;;47.07;13.77;;;;;;;;;;5047206;28;20832;-62
2023/05/28 02:19:38;;;;;;;32.57;12.67;;;;;;;;;;5035652;28;20091;-62
2023/05/28 02:22:10;;;;;;;35.83;13.13;;;;;;;;;;5028215;28;20048;-62
2023/05/28 02:24:37;;;;;;;33.37;12.80;;;;;;;;;;5031340;28;20048;-62
2023/05/28 02:27:03;;;;;;;32.97;12.03;;;;;;;;;;5031420;28;20115;-62
2023/05/28 02:29:29;;;;;;;37.73;12.63;;;;;;;;;;5031342;28;20076;-62
2023/05/28 02:31:55;;;;;;;32.40;12.07;;;;;;;;;;5030498;28;20244;-62
2023/05/28 02:34:22;;;;;;;30.63;13.40;;;;;;;;;;5031330;28;20416;-62
2023/05/28 02:36:48;;;;;;;33.73;12.50;;;;;;;;;;5031291;28;20061;-62
2023/05/28 02:39:14;;;;;;;39.03;13.23;;;;;;;;;;5031323;28;20056;-62
2023/05/28 02:41:40;;;;;;;44.10;13.67;;;;;;;;;;5031287;28;20120;-62
2023/05/28 02:44:06;;;;;;;31.83;13.63;;;;;;;;;;5031153;28;20053;-62
2023/05/28 02:46:33;;;;;;;30.03;11.93;;;;;;;;;;5039405;28;20049;-62
2023/05/28 02:48:59;;;;;;;32.67;13.10;;;;;;;;;;5033737;28;20069;-62
2023/05/28 02:51:25;;;;;;;47.47;14.33;;;;;;;;;;5030996;28;20045;-62
2023/05/28 02:53:51;;;;;;;34.87;12.33;;;;;;;;;;5030890;28;20307;-62
2023/05/28 02:56:17;;;;;;;29.87;12.60;;;;;;;;;;5048672;28;20271;-62
2023/05/28 02:58:43;;;;;;;39.50;13.80;;;;;;;;;;5050916;28;20056;-62
2023/05/28 03:01:09;;;;;;;39.40;14.30;;;;;;;;;;5050831;28;20840;-62
2023/05/28 03:03:35;;;;;;;34.07;12.70;;;;;;;;;;5050408;28;20423;-62
2023/05/28 03:06:01;;;;;;;34.17;11.93;;;;;;;;;;5050853;28;20048;-62
2023/05/28 03:08:27;;;;;;;37.77;13.60;;;;;;;;;;5050706;28;20052;-62
2023/05/28 03:10:53;;;;;;;42.97;14.00;;;;;;;;;;5050551;28;20466;-62
2023/05/28 03:13:19;;;;;;;41.03;12.63;;;;;;;;;;5050799;28;20102;-62
2023/05/28 03:15:45;;;;;;;43.47;16.03;;;;;;;;;;5050392;28;20052;-62
2023/05/28 03:18:11;;;;;;;33.23;12.27;;;;;;;;;;5050008;28;20045;-63
2023/05/28 03:20:38;;;;;;;38.43;13.20;;;;;;;;;;5050427;28;20450;-62
2023/05/28 03:23:04;;;;;;;35.43;12.57;;;;;;;;;;5050438;28;20056;-62
2023/05/28 03:25:30;;;;;;;32.57;12.37;;;;;;;;;;5048868;28;20084;-62
2023/05/28 03:27:56;;;;;;;40.30;13.57;;;;;;;;;;5049697;28;20452;-62
2023/05/28 03:30:23;;;;;;;44.03;13.67;;;;;;;;;;5050322;28;20487;-62
2023/05/28 03:32:49;;;;;;;30.07;12.87;;;;;;;;;;5045815;28;20058;-62
2023/05/28 03:35:15;;;;;;;35.17;12.53;;;;;;;;;;5029796;28;20448;-62
2023/05/28 03:37:41;;;;;;;45.63;13.70;;;;;;;;;;5029601;28;20393;-62
2023/05/28 03:40:08;;;;;;;33.23;13.10;;;;;;;;;;5029669;28;20124;-62
2023/05/28 03:42:34;;;;;;;33.60;12.43;;;;;;;;;;5029809;28;20057;-62
2023/05/28 03:45:01;;;;;;;43.47;13.50;;;;;;;;;;5029911;28;20092;-62
2023/05/28 03:47:30;;;;;;;39.93;13.83;;;;;;;;;;5029620;28;20053;-62
2023/05/28 03:49:58;;;;;;;31.03;12.67;;;;;;;;;;5029753;28;20045;-62
2023/05/28 03:52:24;;;;;;;38.97;12.77;;;;;;;;;;5029172;28;20049;-62
2023/05/28 03:54:50;;;;;;;37.60;13.23;;;;;;;;;;5028979;28;20049;-62
2023/05/28 03:57:16;;;;;;;40.57;13.10;;;;;;;;;;5029382;28;20505;-62
2023/05/28 03:59:42;;;;;;;38.27;12.50;;;;;;;;;;5040711;28;20454;-62
2023/05/28 04:02:08;;;;;;;33.17;11.07;;;;;;;;;;5049599;28;20140;-62
2023/05/28 04:04:34;;;;;;;35.87;13.17;;;;;;;;;;5038433;28;20058;-62
2023/05/28 04:07:00;;;;;;;31.87;11.63;;;;;;;;;;5028999;28;20087;-62
2023/05/28 04:09:27;;;;;;;29.63;12.40;;;;;;;;;;5029666;28;20052;-60
2023/05/28 04:11:53;;;;;;;33.73;11.67;;;;;;;;;;5029187;28;20058;-60
2023/05/28 04:14:20;;;;;;;31.90;11.90;;;;;;;;;;5027662;28;20092;-63
2023/05/28 04:16:46;;;;;;;36.90;11.97;;;;;;;;;;5028770;28;20095;-63
2023/05/28 04:19:12;;;;;;;36.03;11.23;;;;;;;;;;5028702;28;20050;-63
2023/05/28 04:21:38;;;;;;;30.30;11.50;;;;;;;;;;5028992;28;20045;-63
2023/05/28 04:24:04;;;;;;;38.17;12.23;;;;;;;;;;5029106;28;20046;-63
2023/05/28 04:26:31;;;;;;;27.93;12.30;;;;;;;;;;5028595;28;20057;-63
2023/05/28 04:28:59;;;;;;;39.73;12.43;;;;;;;;;;5029220;28;20085;-62
2023/05/28 04:31:28;;;;;;;34.03;13.23;;;;;;;;;;5028616;28;20076;-63
2023/05/28 04:33:55;;;;;;;45.00;13.13;;;;;;;;;;5032646;28;20053;-63
2023/05/28 04:36:21;;;;;;;38.07;13.77;;;;;;;;;;5048625;28;20515;-63
2023/05/28 04:38:47;;;;;;;38.90;13.67;;;;;;;;;;5048631;28;20143;-63
2023/05/28 04:41:14;;;;;;;37.30;12.77;;;;;;;;;;5048317;28;20052;-63
2023/05/28 04:43:43;;;;;;;40.13;14.10;;;;;;;;;;5048504;28;20110;-63
2023/05/28 04:46:09;;;;;;;36.70;12.30;;;;;;;;;;5048031;28;20037;-63
2023/05/28 04:48:36;;;;;;;33.90;12.63;;;;;;;;;;5033450;28;20048;-63
2023/05/28 04:51:03;;;;;;;28.77;13.27;;;;;;;;;;5048610;28;20048;-63
2023/05/28 04:53:31;;;;;;;36.90;14.17;;;;;;;;;;5048007;28;20045;-63
2023/05/28 04:55:57;;;;;;;35.77;13.87;;;;;;;;;;5048281;28;20055;-63
2023/05/28 04:58:23;;;;;;;37.17;14.10;;;;;;;;;;5048508;28;21121;-63
2023/05/28 05:00:49;;;;;;;33.53;13.37;;;;;;;;;;5048058;28;20045;-63
2023/05/28 05:03:15;;;;;;;40.47;14.10;;;;;;;;;;5048390;28;20055;-63
2023/05/28 05:05:41;;;;;;;37.87;13.57;;;;;;;;;;5047991;28;20052;-63
2023/05/28 05:08:09;;;;;;;39.80;14.37;;;;;;;;;;5048267;28;20049;-63
2023/05/28 05:10:35;;;;;;;44.87;14.10;;;;;;;;;;5048400;28;20151;-63
2023/05/28 05:13:01;;;;;;;38.80;13.87;;;;;;;;;;5047126;28;20041;-63
2023/05/28 05:15:27;;;;;;;40.40;13.53;;;;;;;;;;5032570;28;20527;-63
2023/05/28 05:17:53;;;;;;;43.20;13.70;;;;;;;;;;5044972;28;20392;-63
2023/05/28 05:20:19;;;;;;;32.33;13.50;;;;;;;;;;5038873;28;20045;-63
2023/05/28 05:22:45;;;;;;;30.97;13.20;;;;;;;;;;5048078;28;20529;-63
2023/05/28 05:25:11;;;;;;;38.63;13.00;;;;;;;;;;5048308;28;20096;-63
2023/05/28 05:27:37;;;;;;;34.27;13.90;;;;;;;;;;5047748;28;20051;-63
2023/05/28 05:30:05;;;;;;;38.03;14.60;;;;;;;;;;5049522;28;20469;-63
2023/05/28 05:32:31;;;;;;;35.83;13.30;;;;;;;;;;5047927;28;20494;-63
2023/05/28 05:34:57;;;;;;;30.97;13.27;;;;;;;;;;5044691;28;20054;-63
2023/05/28 05:37:23;;;;;;;33.17;13.73;;;;;;;;;;5038704;28;20095;-63
2023/05/28 05:39:49;;;;;;;34.40;13.37;;;;;;;;;;5047175;28;20059;-63
2023/05/28 05:42:15;;;;;;;33.97;12.73;;;;;;;;;;5047659;28;20044;-63
2023/05/28 05:44:41;;;;;;;35.53;12.47;;;;;;;;;;5047586;28;20056;-63
2023/05/28 05:47:07;;;;;;;34.27;11.63;;;;;;;;;;5047691;28;20056;-63
2023/05/28 05:49:33;;;;;;;32.57;11.90;;;;;;;;;;5047222;28;20045;-63
2023/05/28 05:51:59;;;;;;;37.57;13.43;;;;;;;;;;5029083;28;20095;-63
2023/05/28 05:54:25;;;;;;;36.67;11.90;;;;;;;;;;5027225;28;20057;-63
2023/05/28 05:56:52;;;;;;;29.73;10.67;;;;;;;;;;5027666;28;20107;-63
2023/05/28 05:59:18;;;;;;;28.03;11.40;;;;;;;;;;5031933;28;20050;-63
2023/05/28 06:01:45;;;;;;;27.20;10.37;;;;;;;;;;5031683;28;20049;-63
2023/05/28 06:04:11;;;;;;;27.63;10.40;;;;;;;;;;5032029;28;20136;-63
2023/05/28 06:06:38;;;;;;;23.80;10.00;;;;;;;;;;5031730;28;20049;-63
2023/05/28 06:09:04;;;;;;;25.07;9.80;;;;;;;;;;5030494;28;20057;-63
2023/05/28 06:11:30;;;;;;;26.23;10.00;;;;;;;;;;5031516;28;20427;-63
2023/05/28 06:13:56;;;;;;;22.03;9.50;;;;;;;;;;5031081;28;20041;-63
2023/05/28 06:16:22;;;;;;;22.77;9.07;;;;;;;;;;5031607;28;20128;-61
2023/05/28 06:18:49;;;;;;;24.30;11.33;;;;;;;;;;5031317;28;20570;-61
2023/05/28 06:21:15;;;;;;;21.83;9.63;;;;;;;;;;5031450;28;20045;-61
2023/05/28 06:23:41;;;;;;;29.37;10.20;;;;;;;;;;5031148;28;20072;-62
2023/05/28 06:26:07;;;;;;;21.77;8.23;;;;;;;;;;5031000;28;20081;-62
2023/05/28 06:28:33;;;;;;;20.73;7.97;;;;;;;;;;5030288;28;20549;-62
2023/05/28 06:31:00;;;;;;;19.00;7.93;;;;;;;;;;5041099;28;20045;-62
2023/05/28 06:33:26;;;;;;;15.73;7.93;;;;;;;;;;5044390;28;20048;-62
2023/05/28 06:35:52;;;;;;;19.40;7.03;;;;;;;;;;5051114;28;20045;-61
2023/05/28 06:38:18;;;;;;;18.57;6.90;;;;;;;;;;5031522;28;20053;-62
2023/05/28 06:40:44;;;;;;;16.20;6.80;;;;;;;;;;5030679;28;20215;-62
2023/05/28 06:43:10;;;;;;;19.37;6.97;;;;;;;;;;5036324;28;20055;-61
2023/05/28 06:45:36;;;;;;;19.23;5.97;;;;;;;;;;5051490;28;20044;-62
2023/05/28 06:48:03;;;;;;;18.33;6.40;;;;;;;;;;5036337;28;20041;-62
2023/05/28 06:50:29;;;;;;;19.43;6.33;;;;;;;;;;5031110;28;20103;-62
2023/05/28 06:52:56;;;;;;;15.60;5.83;;;;;;;;;;5031461;28;20053;-61
2023/05/28 06:55:22;;;;;;;16.73;6.33;;;;;;;;;;5031247;28;20136;-62
2023/05/28 06:57:48;;;;;;;19.53;7.37;;;;;;;;;;5031269;28;20041;-61
2023/05/28 07:00:16;;;;;;;18.73;5.57;;;;;;;;;;5031173;28;20140;-62
2023/05/28 07:02:43;;;;;;;15.27;5.10;;;;;;;;;;5030836;28;20050;-61
2023/05/28 07:05:09;;;;;;;22.17;6.47;;;;;;;;;;5045757;28;20049;-61
2023/05/28 07:07:36;;;;;;;14.10;5.27;;;;;;;;;;5050801;28;20045;-61
2023/05/28 07:10:03;;;;;;;14.23;5.50;;;;;;;;;;5050029;28;20071;-62
2023/05/28 07:12:29;;;;;;;16.57;5.63;;;;;;;;;;5050926;28;20123;-62
2023/05/28 07:14:55;;;;;;;17.20;5.63;;;;;;;;;;5050115;28;20103;-62
2023/05/28 07:17:21;;;;;;;17.07;6.17;;;;;;;;;;5037151;28;20995;-61
2023/05/28 07:19:48;;;;;;;15.80;6.40;;;;;;;;;;5030246;28;20049;-61
2023/05/28 07:22:14;;;;;;;17.43;5.87;;;;;;;;;;5039129;28;20438;-62
2023/05/28 07:24:40;;;;;;;12.40;5.40;;;;;;;;;;5031891;28;20617;-62
2023/05/28 07:27:06;;;;;;;19.30;6.70;;;;;;;;;;5030658;28;20478;-63
2023/05/28 07:29:32;;;;;;;14.37;5.90;;;;;;;;;;5048007;28;20048;-62
2023/05/28 07:31:59;;;;;;;16.90;5.67;;;;;;;;;;5048339;28;20448;-63
2023/05/28 07:34:25;;;;;;;15.47;5.80;;;;;;;;;;5043123;28;20520;-63
2023/05/28 07:36:51;;;;;;;17.57;6.20;;;;;;;;;;5048092;28;20048;-63
2023/05/28 07:39:17;;;;;;;19.50;5.50;;;;;;;;;;5048887;28;20041;-63
2023/05/28 07:41:43;;;;;;;12.07;5.07;;;;;;;;;;5049197;28;20064;-63
2023/05/28 07:44:09;;;;;;;15.23;5.53;;;;;;;;;;5044437;28;20052;-63
2023/05/28 07:46:37;;;;;;;11.20;4.70;;;;;;;;;;5028439;28;20045;-63
2023/05/28 07:49:03;;;;;;;11.43;5.50;;;;;;;;;;5028931;28;20523;-63
2023/05/28 07:51:29;;;;;;;16.13;5.37;;;;;;;;;;5029579;28;20368;-63
2023/05/28 07:53:55;;;;;;;18.20;5.60;;;;;;;;;;5030195;28;20505;-63
2023/05/28 07:56:21;;;;;;;16.63;5.57;;;;;;;;;;5029947;28;20068;-63
2023/05/28 07:58:48;;;;;;;13.07;5.07;;;;;;;;;;5029307;28;20050;-62
2023/05/28 08:01:14;;;;;;;19.87;5.43;;;;;;;;;;5029047;28;20579;-62
2023/05/28 08:03:40;;;;;;;12.17;4.83;;;;;;;;;;5029331;28;20091;-63
2023/05/28 08:06:08;;;;;;;10.93;4.90;;;;;;;;;;5029830;28;20045;-63
2023/05/28 08:08:34;;;;;;;13.90;5.07;;;;;;;;;;5031826;28;20060;-62
2023/05/28 08:11:00;;;;;;;11.80;4.27;;;;;;;;;;5029233;28;20128;-62
2023/05/28 08:13:26;;;;;;;12.20;5.07;;;;;;;;;;5028655;28;20087;-62
2023/05/28 08:15:52;;;;;;;11.03;5.30;;;;;;;;;;5029033;28;20096;-62
2023/05/28 08:18:18;;;;;;;12.67;5.37;;;;;;;;;;5029430;28;20053;-63
2023/05/28 08:20:44;;;;;;;10.90;4.63;;;;;;;;;;5028088;28;20529;-62
2023/05/28 08:23:10;;;;;;;13.63;4.87;;;;;;;;;;5029116;28;20037;-62
2023/05/28 08:25:36;;;;;;;14.43;5.63;;;;;;;;;;5028488;28;20416;-62
2023/05/28 08:28:04;;;;;;;13.50;5.40;;;;;;;;;;5040860;28;20154;-62
2023/05/28 08:30:31;;;;;;;13.63;5.33;;;;;;;;;;5049193;28;20167;-62
2023/05/28 08:32:57;;;;;;;11.50;4.70;;;;;;;;;;5048482;28;20052;-62
2023/05/28 08:35:25;;;;;;;12.03;5.07;;;;;;;;;;5048319;28;20193;-62
2023/05/28 08:37:51;;;;;;;15.40;6.40;;;;;;;;;;5043411;28;20045;-62
2023/05/28 08:40:17;;;;;;;13.10;5.60;;;;;;;;;;5048627;28;20063;-62
2023/05/28 08:42:43;;;;;;;19.17;6.03;;;;;;;;;;5048530;28;20052;-62
2023/05/28 08:45:10;;;;;;;14.93;5.30;;;;;;;;;;5048418;28;20510;-62
2023/05/28 08:47:37;;;;;;;12.23;4.87;;;;;;;;;;5048378;28;20041;-62
2023/05/28 08:50:05;;;;;;;9.73;4.87;;;;;;;;;;5048142;28;20052;-62
2023/05/28 08:52:34;;;;;;;13.03;5.70;;;;;;;;;;5036521;28;20075;-62
2023/05/28 08:55:01;;;;;;;15.03;5.47;;;;;;;;;;5040806;28;20406;-62
2023/05/28 08:57:29;;;;;;;11.17;5.73;;;;;;;;;;5048248;28;20179;-62
2023/05/28 08:59:55;;;;;;;12.43;5.97;;;;;;;;;;5047957;28;20131;-62
2023/05/28 09:02:25;;;;;;;13.83;5.60;;;;;;;;;;5041270;28;20041;-62
2023/05/28 09:04:51;;;;;;;13.80;6.57;;;;;;;;;;5039677;28;20052;-62
2023/05/28 09:07:17;;;;;;;12.60;5.53;;;;;;;;;;5044839;28;20045;-62
2023/05/28 09:09:44;;;;;;;12.70;5.70;;;;;;;;;;5034639;28;20046;-62
2023/05/28 09:12:10;;;;;;;9.75;5.75;;;;;;;;;;5036317;28;20045;-62
2023/05/28 09:14:41;;;;;;;12.80;5.95;;;;;;;;;;5027967;28;20056;-62
2023/05/28 09:17:13;;;;;;;11.98;5.32;;;;;;;;;;5042135;28;20056;-62
2023/05/28 09:19:40;;;;;;;13.52;5.38;;;;;;;;;;5047204;28;20556;-62
2023/05/28 09:22:06;;;;;;;12.85;6.43;;;;;;;;;;5045080;28;20037;-62
2023/05/28 09:24:32;;;;;;;12.50;6.32;;;;;;;;;;5047879;28;20138;-63
2023/05/28 09:26:58;;;;;;;10.95;5.82;;;;;;;;;;5048719;28;20048;-63
2023/05/28 09:29:25;;;;;;;11.40;6.18;;;;;;;;;;5046575;28;20049;-63
2023/05/28 09:32:01;;;;;;;12.05;5.85;;;;;;;;;;5047221;28;20124;-63
2023/05/28 09:34:31;;;;;;;11.15;5.72;;;;;;;;;;5057635;28;20234;-63
2023/05/28 09:37:01;;;;;;;12.63;6.53;;;;;;;;;;5052866;28;20146;-63
2023/05/28 09:39:27;;;;;;;10.93;5.55;;;;;;;;;;5047124;28;20106;-63
2023/05/28 09:42:03;;;;;;;11.68;5.90;;;;;;;;;;5047237;28;20063;-63
2023/05/28 09:44:33;;;;;;;11.80;5.68;;;;;;;;;;5037557;28;20041;-63
2023/05/28 09:46:59;;;;;;;11.23;5.30;;;;;;;;;;5046518;28;20041;-63
2023/05/28 09:49:29;;;;;;;13.23;6.00;;;;;;;;;;5046905;28;20052;-63
2023/05/28 09:51:58;;;;;;;12.07;5.82;;;;;;;;;;5038870;28;20045;-63
2023/05/28 09:54:26;;;;;;;15.27;5.97;;;;;;;;;;5026306;28;20049;-63
2023/05/28 09:56:53;;;;;;;12.63;5.68;;;;;;;;;;5027722;28;20049;-63
2023/05/28 09:59:20;;;;;;;12.25;5.20;;;;;;;;;;5027840;28;20467;-63
2023/05/28 10:01:51;;;;;;;13.13;5.40;;;;;;;;;;5027468;28;20046;-63
2023/05/28 10:04:18;;;;;;;11.52;5.05;;;;;;;;;;5026459;28;20081;-63
2023/05/28 10:06:44;;;;;;;13.25;5.80;;;;;;;;;;5027673;28;20050;-63
2023/05/28 10:09:14;;;;;;;11.95;4.93;;;;;;;;;;5034364;28;20033;-63
2023/05/28 10:11:43;;;;;;;14.85;4.75;;;;;;;;;;5044286;28;20351;-63
2023/05/28 10:14:10;;;;;;;12.68;5.55;;;;;;;;;;5047866;28;20122;-63
2023/05/28 10:16:37;;;;;;;9.90;4.75;;;;;;;;;;5045100;28;20045;-63
2023/05/28 10:19:03;;;;;;;10.55;5.60;;;;;;;;;;5047234;28;20053;-63
2023/05/28 10:21:29;;;;;;;10.77;5.40;;;;;;;;;;5047600;28;20404;-63
2023/05/28 10:23:56;;;;;;;8.13;4.60;;;;;;;;;;5036668;28;20128;-63
2023/05/28 10:26:22;;;;;;;9.95;4.78;;;;;;;;;;5043223;28;20048;-63
2023/05/28 10:28:55;;;;;;;11.25;4.72;;;;;;;;;;5047328;28;20041;-63
2023/05/28 10:31:24;;;;;;;13.57;4.95;;;;;;;;;;5034723;28;20061;-63
2023/05/28 10:33:50;;;;;;;13.82;5.00;;;;;;;;;;5043992;28;20057;-61
2023/05/28 10:36:17;;;;;;;8.13;5.10;;;;;;;;;;5047182;28;20053;-61
2023/05/28 10:38:57;;;;;;;10.23;4.78;;;;;;;;;;5043779;28;20074;-61
2023/05/28 10:41:24;;;;;;;8.63;4.55;;;;;;;;;;5047433;28;20114;-61
2023/05/28 10:43:53;;;;;;;10.38;4.88;;;;;;;;;;5048737;28;20045;-61
2023/05/28 10:46:26;;;;;;;10.32;5.03;;;;;;;;;;5047782;28;20117;-62
2023/05/28 10:49:10;;;;;;;11.48;5.00;;;;;;;;;;5034274;28;20060;-62
2023/05/28 10:51:57;;;;;;;10.48;5.07;;;;;;;;;;5033549;28;20077;-62
2023/05/28 10:54:39;;;;;;;11.32;5.25;;;;;;;;;;5040843;28;20485;-62
2023/05/28 10:57:05;;;;;;;;;;;;;;;;;;5051400;28;20076;-62
2023/05/28 10:59:41;;;;;;;8.70;4.55;;;;;;;;;;5037382;28;20388;-62
2023/05/28 11:02:08;;;;;;;8.27;4.30;;;;;;;;;;5050763;28;20052;-62
2023/05/28 11:04:37;;;;;;;8.68;4.85;;;;;;;;;;5050612;28;20075;-62
2023/05/28 11:07:03;;;;;;;9.50;5.03;;;;;;;;;;5049113;28;20056;-63
2023/05/28 11:09:29;;;;;;;12.02;5.00;;;;;;;;;;5050339;28;20048;-63
2023/05/28 11:12:00;;;;;;;11.50;5.22;;;;;;;;;;5050236;28;20592;-63
2023/05/28 11:14:30;;;;;;;13.18;5.22;;;;;;;;;;5050247;28;20079;-62
2023/05/28 11:16:56;;;;;;;12.48;5.45;;;;;;;;;;5040420;28;20574;-63
2023/05/28 11:19:21;;;;;;;10.38;4.72;;;;;;;;;;5029688;28;20042;-62
2023/05/28 11:21:55;;;;;;;10.60;5.38;;;;;;;;;;5029648;28;20084;-63
2023/05/28 11:24:22;;;;;;;12.00;4.90;;;;;;;;;;5028755;28;20091;-62
2023/05/28 11:26:48;;;;;;;8.30;4.75;;;;;;;;;;5030013;28;20049;-62
2023/05/28 11:29:15;;;;;;;8.68;4.72;;;;;;;;;;5030080;28;20049;-63
2023/05/28 11:31:42;;;;;;;7.78;4.88;;;;;;;;;;5029697;28;20053;-62
2023/05/28 11:34:09;;;;;;;7.20;4.32;;;;;;;;;;5036676;28;20583;-62
2023/05/28 11:36:38;;;;;;;8.15;4.45;;;;;;;;;;5043354;28;20040;-62
2023/05/28 11:39:06;;;;;;;9.77;5.88;;;;;;;;;;5033111;28;20068;-62
2023/05/28 11:41:32;;;;;;;8.07;4.97;;;;;;;;;;5046662;28;20045;-62
2023/05/28 11:43:58;;;;;;;9.30;5.45;;;;;;;;;;5049939;28;20053;-62
2023/05/28 11:46:24;;;;;;;7.95;4.47;;;;;;;;;;5049719;28;20138;-62
2023/05/28 11:48:50;;;;;;;8.45;5.22;;;;;;;;;;5047440;28;20120;-62
2023/05/28 11:51:19;;;;;;;6.55;4.30;;;;;;;;;;5030370;28;20056;-62
2023/05/28 11:53:46;;;;;;;6.93;4.30;;;;;;;;;;5049733;28;20098;-62
2023/05/28 11:56:12;;;;;;;7.10;3.72;;;;;;;;;;5050078;28;20044;-62
2023/05/28 11:58:43;;;;;;;7.63;3.92;;;;;;;;;;5049278;28;20477;-63
2023/05/28 12:01:13;;;;;;;7.22;5.22;;;;;;;;;;5050049;28;20088;-62
2023/05/28 12:03:41;;;;;;;6.88;4.57;;;;;;;;;;5049802;28;20048;-63
2023/05/28 12:06:08;;;;;;;7.78;4.50;;;;;;;;;;5045042;28;20122;-63
2023/05/28 12:08:34;;;;;;;7.43;4.40;;;;;;;;;;5029738;28;20504;-62
2023/05/28 12:11:03;;;;;;;10.32;4.70;;;;;;;;;;5031832;28;20049;-62
2023/05/28 12:13:35;;;;;;;6.93;4.20;;;;;;;;;;5049880;28;20040;-62
2023/05/28 12:16:12;;;;;;;6.68;4.10;;;;;;;;;;5048230;28;20537;-62
2023/05/28 12:18:44;;;;;;;8.40;5.10;;;;;;;;;;5049279;28;20419;-62
2023/05/28 12:21:20;;;;;;;6.80;4.47;;;;;;;;;;5049087;28;20063;-62
2023/05/28 12:23:46;;;;;;;5.68;4.28;;;;;;;;;;5039065;28;20047;-62
2023/05/28 12:26:12;;;;;;;7.45;4.53;;;;;;;;;;5029414;28;20052;-62
2023/05/28 12:28:40;;;;;;;4.95;4.32;;;;;;;;;;5041664;28;20132;-63
2023/05/28 12:31:07;;;;;;;6.53;5.05;;;;;;;;;;5042773;28;20453;-63
2023/05/28 12:33:33;;;;;;;6.90;4.95;;;;;;;;;;5040011;28;20060;-63
2023/05/28 12:36:02;;;;;;;6.88;4.68;;;;;;;;;;5031523;28;20087;-63
2023/05/28 12:38:28;;;;;;;6.63;4.97;;;;;;;;;;5058802;28;20052;-63
2023/05/28 12:40:54;;;;;;;6.63;4.10;;;;;;;;;;5040593;28;20207;-62
2023/05/28 12:43:21;;;;;;;5.82;4.90;;;;;;;;;;5048368;28;20057;-62
2023/05/28 12:45:47;;;;;;;7.10;4.10;;;;;;;;;;5047053;28;20056;-62
2023/05/28 12:48:13;;;;;;;5.85;4.07;;;;;;;;;;5040617;28;20487;-62
2023/05/28 12:50:39;;;;;;;6.78;4.15;;;;;;;;;;5047570;28;20048;-62
2023/05/28 12:53:05;;;;;;;6.60;4.55;;;;;;;;;;5047780;28;20045;-62
2023/05/28 12:55:32;;;;;;;5.30;3.95;;;;;;;;;;5047836;28;20103;-62
2023/05/28 12:57:58;;;;;;;5.20;4.18;;;;;;;;;;5041642;28;20053;-62
2023/05/28 13:00:24;;;;;;;6.82;4.70;;;;;;;;;;5040613;28;20045;-62
2023/05/28 13:02:51;;;;;;;6.72;4.13;;;;;;;;;;5031227;28;20361;-62
2023/05/28 13:05:17;;;;;;;5.75;4.07;;;;;;;;;;5039195;28;20050;-63
2023/05/28 13:07:43;;;;;;;6.82;4.07;;;;;;;;;;5033638;28;20041;-63
2023/05/28 13:10:10;;;;;;;6.38;4.57;;;;;;;;;;5037635;28;20411;-63
2023/05/28 13:12:37;;;;;;;5.60;4.28;;;;;;;;;;5048011;28;20037;-62
2023/05/28 13:15:07;;;;;;;7.65;4.65;;;;;;;;;;5042883;28;20562;-63
2023/05/28 13:17:33;;;;;;;8.38;4.88;;;;;;;;;;5045515;28;20518;-63
2023/05/28 13:20:00;;;;;;;4.32;3.83;;;;;;;;;;5048170;28;20052;-62
2023/05/28 13:22:26;;;;;;;5.53;4.45;;;;;;;;;;5048894;28;20466;-62
2023/05/28 13:24:52;;;;;;;7.45;4.20;;;;;;;;;;5048660;28;20056;-62
2023/05/28 13:27:18;;;;;;;5.07;3.83;;;;;;;;;;5048529;28;20048;-62
2023/05/28 13:29:44;;;;;;;5.68;4.65;;;;;;;;;;5048026;28;20041;-62
2023/05/28 13:32:10;;;;;;;5.63;3.50;;;;;;;;;;5035117;28;20062;-62
2023/05/28 13:34:39;;;;;;;6.13;3.35;;;;;;;;;;5028207;28;20085;-62
2023/05/28 13:37:05;;;;;;;6.65;3.50;;;;;;;;;;5028932;28;20091;-62
2023/05/28 13:39:31;;;;;;;5.65;3.53;;;;;;;;;;5028309;28;20044;-62
2023/05/28 13:41:58;;;;;;;6.50;4.32;;;;;;;;;;5043751;28;20048;-62
2023/05/28 13:44:24;;;;;;;7.95;3.90;;;;;;;;;;5030240;28;20129;-62
2023/05/28 13:46:50;;;;;;;6.05;4.20;;;;;;;;;;5039416;28;20055;-62
2023/05/28 13:49:16;;;;;;;6.78;3.53;;;;;;;;;;5037214;28;20102;-62
2023/05/28 13:51:43;;;;;;;5.32;3.15;;;;;;;;;;5035421;28;20113;-62
2023/05/28 13:54:10;;;;;;;8.38;3.42;;;;;;;;;;5045812;28;20444;-62
2023/05/28 13:56:36;;;;;;;5.10;3.08;;;;;;;;;;5046994;28;20059;-62
2023/05/28 13:59:02;;;;;;;6.80;3.03;;;;;;;;;;5047150;28;20048;-62
2023/05/28 14:01:28;;;;;;;7.40;3.67;;;;;;;;;;5046509;28;20470;-62
2023/05/28 14:03:54;;;;;;;7.18;2.75;;;;;;;;;;5046206;28;20283;-62
2023/05/28 14:06:20;;;;;;;8.07;4.00;;;;;;;;;;5032922;28;20089;-62
2023/05/28 14:08:46;;;;;;;5.60;3.10;;;;;;;;;;5044248;28;20045;-62
2023/05/28 14:11:12;;;;;;;8.82;3.40;;;;;;;;;;5047128;28;20122;-62
2023/05/28 14:13:38;;;;;;;6.13;3.03;;;;;;;;;;5047440;28;20041;-62
2023/05/28 14:16:05;;;;;;;5.40;2.85;;;;;;;;;;5047706;28;20504;-62
2023/05/28 14:18:31;;;;;;;6.72;3.72;;;;;;;;;;5047539;28;20364;-62
2023/05/28 14:20:57;;;;;;;5.47;2.88;;;;;;;;;;5051182;28;20064;-62
2023/05/28 14:23:23;;;;;;;7.05;2.92;;;;;;;;;;5046188;28;20076;-62
2023/05/28 14:25:49;;;;;;;7.40;2.80;;;;;;;;;;5051059;28;20037;-62